sensor_id;sensor_type;location;lat;lon;timestamp;P1;durP1;ratioP1;P2;durP2;ratioP2
84135;SDS011;74238;50.566;7.262;2024-03-02T00:00:00;5.43;;;2.30;;
84135;SDS011;74238;50.566;7.262;2024-03-02T00:02:26;7.18;;;2.35;;
84135;SDS011;74238;50.566;7.262;2024-03-02T00:04:52;4.13;;;2.83;;
84135;SDS011;74238;50.566;7.262;2024-03-02T00:07:17;6.07;;;2.50;;
84135;SDS011;74238;50.566;7.262;2024-03-02T00:09:43;3.95;;;2.50;;
84135;SDS011;74238;50.566;7.262;2024-03-02T00:12:10;3.45;;;2.03;;
84135;SDS011;74238;50.566;7.262;2024-03-02T00:14:40;4.05;;;2.60;;
84135;SDS011;74238;50.566;7.262;2024-03-02T00:17:07;3.28;;;2.50;;
84135;SDS011;74238;50.566;7.262;2024-03-02T00:19:46;4.18;;;2.35;;
84135;SDS011;74238;50.566;7.262;2024-03-02T00:22:11;5.28;;;2.58;;
84135;SDS011;74238;50.566;7.262;2024-03-02T00:24:37;3.65;;;2.50;;
84135;SDS011;74238;50.566;7.262;2024-03-02T00:27:03;3.73;;;2.33;;
84135;SDS011;74238;50.566;7.262;2024-03-02T00:29:29;4.30;;;2.53;;
84135;SDS011;74238;50.566;7.262;2024-03-02T00:31:54;2.80;;;2.25;;
84135;SDS011;74238;50.566;7.262;2024-03-02T00:34:20;3.70;;;2.10;;
84135;SDS011;74238;50.566;7.262;2024-03-02T00:36:46;2.88;;;2.08;;
84135;SDS011;74238;50.566;7.262;2024-03-02T00:39:12;4.40;;;2.30;;
84135;SDS011;74238;50.566;7.262;2024-03-02T00:41:41;3.83;;;2.92;;
84135;SDS011;74238;50.566;7.262;2024-03-02T00:44:07;3.60;;;2.17;;
84135;SDS011;74238;50.566;7.262;2024-03-02T00:46:37;3.88;;;2.47;;
84135;SDS011;74238;50.566;7.262;2024-03-02T00:49:05;3.25;;;2.30;;
84135;SDS011;74238;50.566;7.262;2024-03-02T00:51:39;2.67;;;2.10;;
84135;SDS011;74238;50.566;7.262;2024-03-02T00:54:05;3.53;;;2.53;;
84135;SDS011;74238;50.566;7.262;2024-03-02T00:56:33;2.95;;;2.20;;
84135;SDS011;74238;50.566;7.262;2024-03-02T00:58:59;3.05;;;2.30;;
84135;SDS011;74238;50.566;7.262;2024-03-02T01:01:25;4.32;;;2.47;;
84135;SDS011;74238;50.566;7.262;2024-03-02T01:03:50;2.72;;;2.20;;
84135;SDS011;74238;50.566;7.262;2024-03-02T01:06:16;2.55;;;1.75;;
84135;SDS011;74238;50.566;7.262;2024-03-02T01:08:42;4.93;;;2.40;;
84135;SDS011;74238;50.566;7.262;2024-03-02T01:11:08;2.40;;;1.80;;
84135;SDS011;74238;50.566;7.262;2024-03-02T01:13:33;3.05;;;1.83;;
84135;SDS011;74238;50.566;7.262;2024-03-02T01:15:58;4.57;;;2.50;;
84135;SDS011;74238;50.566;7.262;2024-03-02T01:18:24;2.97;;;2.03;;
84135;SDS011;74238;50.566;7.262;2024-03-02T01:20:49;3.03;;;2.08;;
84135;SDS011;74238;50.566;7.262;2024-03-02T01:23:20;2.97;;;1.80;;
84135;SDS011;74238;50.566;7.262;2024-03-02T01:25:46;3.83;;;2.05;;
84135;SDS011;74238;50.566;7.262;2024-03-02T01:28:12;2.97;;;1.90;;
84135;SDS011;74238;50.566;7.262;2024-03-02T01:30:38;3.00;;;1.98;;
84135;SDS011;74238;50.566;7.262;2024-03-02T01:33:03;2.55;;;1.92;;
84135;SDS011;74238;50.566;7.262;2024-03-02T01:35:30;3.38;;;2.03;;
84135;SDS011;74238;50.566;7.262;2024-03-02T01:37:56;4.63;;;1.80;;
84135;SDS011;74238;50.566;7.262;2024-03-02T01:40:21;3.53;;;1.80;;
84135;SDS011;74238;50.566;7.262;2024-03-02T01:42:46;2.50;;;1.70;;
84135;SDS011;74238;50.566;7.262;2024-03-02T01:45:12;3.10;;;1.45;;
84135;SDS011;74238;50.566;7.262;2024-03-02T01:47:37;2.40;;;1.63;;
84135;SDS011;74238;50.566;7.262;2024-03-02T01:50:03;2.70;;;1.63;;
84135;SDS011;74238;50.566;7.262;2024-03-02T01:52:28;3.55;;;1.98;;
84135;SDS011;74238;50.566;7.262;2024-03-02T01:54:54;2.83;;;2.25;;
84135;SDS011;74238;50.566;7.262;2024-03-02T01:57:20;3.15;;;1.67;;
84135;SDS011;74238;50.566;7.262;2024-03-02T01:59:46;2.67;;;2.20;;
84135;SDS011;74238;50.566;7.262;2024-03-02T02:02:12;3.67;;;2.10;;
84135;SDS011;74238;50.566;7.262;2024-03-02T02:04:38;4.38;;;1.83;;
84135;SDS011;74238;50.566;7.262;2024-03-02T02:07:04;2.55;;;1.60;;
84135;SDS011;74238;50.566;7.262;2024-03-02T02:09:29;3.70;;;1.80;;
84135;SDS011;74238;50.566;7.262;2024-03-02T02:11:54;3.27;;;1.80;;
84135;SDS011;74238;50.566;7.262;2024-03-02T02:14:20;2.78;;;1.90;;
84135;SDS011;74238;50.566;7.262;2024-03-02T02:16:45;2.73;;;2.13;;
84135;SDS011;74238;50.566;7.262;2024-03-02T02:19:10;3.10;;;1.73;;
84135;SDS011;74238;50.566;7.262;2024-03-02T02:21:36;4.03;;;2.70;;
84135;SDS011;74238;50.566;7.262;2024-03-02T02:24:01;3.97;;;2.30;;
84135;SDS011;74238;50.566;7.262;2024-03-02T02:26:28;3.28;;;2.20;;
84135;SDS011;74238;50.566;7.262;2024-03-02T02:28:54;3.17;;;2.13;;
84135;SDS011;74238;50.566;7.262;2024-03-02T02:31:19;4.47;;;2.17;;
84135;SDS011;74238;50.566;7.262;2024-03-02T02:33:44;4.88;;;2.35;;
84135;SDS011;74238;50.566;7.262;2024-03-02T02:36:10;3.80;;;2.15;;
84135;SDS011;74238;50.566;7.262;2024-03-02T02:38:36;5.10;;;2.10;;
84135;SDS011;74238;50.566;7.262;2024-03-02T02:41:04;3.75;;;2.40;;
84135;SDS011;74238;50.566;7.262;2024-03-02T02:43:29;3.00;;;2.10;;
84135;SDS011;74238;50.566;7.262;2024-03-02T02:45:54;2.22;;;1.50;;
84135;SDS011;74238;50.566;7.262;2024-03-02T02:48:20;4.75;;;2.20;;
84135;SDS011;74238;50.566;7.262;2024-03-02T02:50:45;2.78;;;1.83;;
84135;SDS011;74238;50.566;7.262;2024-03-02T02:53:11;4.68;;;2.97;;
84135;SDS011;74238;50.566;7.262;2024-03-02T02:55:36;3.58;;;1.92;;
84135;SDS011;74238;50.566;7.262;2024-03-02T02:58:05;6.63;;;2.45;;
84135;SDS011;74238;50.566;7.262;2024-03-02T03:00:36;2.83;;;2.00;;
84135;SDS011;74238;50.566;7.262;2024-03-02T03:03:02;3.03;;;2.00;;
84135;SDS011;74238;50.566;7.262;2024-03-02T03:05:27;4.05;;;2.15;;
84135;SDS011;74238;50.566;7.262;2024-03-02T03:07:53;2.83;;;2.22;;
84135;SDS011;74238;50.566;7.262;2024-03-02T03:10:18;4.18;;;2.00;;
84135;SDS011;74238;50.566;7.262;2024-03-02T03:12:43;4.75;;;2.35;;
84135;SDS011;74238;50.566;7.262;2024-03-02T03:15:09;3.63;;;2.20;;
84135;SDS011;74238;50.566;7.262;2024-03-02T03:17:35;3.88;;;2.20;;
84135;SDS011;74238;50.566;7.262;2024-03-02T03:20:02;3.85;;;2.17;;
84135;SDS011;74238;50.566;7.262;2024-03-02T03:22:29;3.30;;;2.08;;
84135;SDS011;74238;50.566;7.262;2024-03-02T03:24:55;2.97;;;2.22;;
84135;SDS011;74238;50.566;7.262;2024-03-02T03:27:20;2.83;;;1.80;;
84135;SDS011;74238;50.566;7.262;2024-03-02T03:29:45;2.70;;;2.15;;
84135;SDS011;74238;50.566;7.262;2024-03-02T03:32:10;4.27;;;2.33;;
84135;SDS011;74238;50.566;7.262;2024-03-02T03:34:36;6.72;;;2.30;;
84135;SDS011;74238;50.566;7.262;2024-03-02T03:37:01;3.38;;;2.25;;
84135;SDS011;74238;50.566;7.262;2024-03-02T03:39:27;4.18;;;1.70;;
84135;SDS011;74238;50.566;7.262;2024-03-02T03:41:53;2.67;;;2.05;;
84135;SDS011;74238;50.566;7.262;2024-03-02T03:44:19;3.72;;;2.50;;
84135;SDS011;74238;50.566;7.262;2024-03-02T03:46:44;3.05;;;1.63;;
84135;SDS011;74238;50.566;7.262;2024-03-02T03:49:09;3.13;;;2.00;;
84135;SDS011;74238;50.566;7.262;2024-03-02T03:51:35;3.47;;;2.33;;
84135;SDS011;74238;50.566;7.262;2024-03-02T03:54:00;4.47;;;2.00;;
84135;SDS011;74238;50.566;7.262;2024-03-02T03:56:26;3.15;;;2.35;;
84135;SDS011;74238;50.566;7.262;2024-03-02T03:58:51;3.35;;;2.72;;
84135;SDS011;74238;50.566;7.262;2024-03-02T04:01:17;3.40;;;1.90;;
84135;SDS011;74238;50.566;7.262;2024-03-02T04:03:42;3.90;;;2.40;;
84135;SDS011;74238;50.566;7.262;2024-03-02T04:06:07;4.55;;;2.30;;
84135;SDS011;74238;50.566;7.262;2024-03-02T04:08:33;4.33;;;2.20;;
84135;SDS011;74238;50.566;7.262;2024-03-02T04:10:58;4.70;;;2.53;;
84135;SDS011;74238;50.566;7.262;2024-03-02T04:13:23;4.10;;;2.50;;
84135;SDS011;74238;50.566;7.262;2024-03-02T04:15:48;5.00;;;3.17;;
84135;SDS011;74238;50.566;7.262;2024-03-02T04:18:14;4.47;;;2.92;;
84135;SDS011;74238;50.566;7.262;2024-03-02T04:20:39;9.67;;;4.23;;
84135;SDS011;74238;50.566;7.262;2024-03-02T04:23:04;4.37;;;3.37;;
84135;SDS011;74238;50.566;7.262;2024-03-02T04:25:30;5.78;;;3.30;;
84135;SDS011;74238;50.566;7.262;2024-03-02T04:27:55;6.10;;;2.90;;
84135;SDS011;74238;50.566;7.262;2024-03-02T04:30:21;7.95;;;3.28;;
84135;SDS011;74238;50.566;7.262;2024-03-02T04:32:46;4.50;;;3.38;;
84135;SDS011;74238;50.566;7.262;2024-03-02T04:35:11;5.65;;;4.05;;
84135;SDS011;74238;50.566;7.262;2024-03-02T04:37:40;5.13;;;3.63;;
84135;SDS011;74238;50.566;7.262;2024-03-02T04:40:05;5.07;;;2.97;;
84135;SDS011;74238;50.566;7.262;2024-03-02T04:42:34;4.88;;;3.47;;
84135;SDS011;74238;50.566;7.262;2024-03-02T04:45:00;6.22;;;3.60;;
84135;SDS011;74238;50.566;7.262;2024-03-02T04:47:26;3.50;;;2.78;;
84135;SDS011;74238;50.566;7.262;2024-03-02T04:49:51;5.72;;;3.70;;
84135;SDS011;74238;50.566;7.262;2024-03-02T04:52:17;7.55;;;3.92;;
84135;SDS011;74238;50.566;7.262;2024-03-02T04:54:42;7.13;;;3.65;;
84135;SDS011;74238;50.566;7.262;2024-03-02T04:57:27;9.30;;;4.00;;
84135;SDS011;74238;50.566;7.262;2024-03-02T04:59:52;5.38;;;3.35;;
84135;SDS011;74238;50.566;7.262;2024-03-02T05:02:17;5.63;;;3.37;;
84135;SDS011;74238;50.566;7.262;2024-03-02T05:04:42;7.22;;;4.10;;
84135;SDS011;74238;50.566;7.262;2024-03-02T05:07:08;7.72;;;4.18;;
84135;SDS011;74238;50.566;7.262;2024-03-02T05:09:33;6.90;;;4.05;;
84135;SDS011;74238;50.566;7.262;2024-03-02T05:11:58;4.63;;;3.23;;
84135;SDS011;74238;50.566;7.262;2024-03-02T05:14:29;5.53;;;3.63;;
84135;SDS011;74238;50.566;7.262;2024-03-02T05:16:55;5.27;;;3.63;;
84135;SDS011;74238;50.566;7.262;2024-03-02T05:19:20;6.95;;;3.33;;
84135;SDS011;74238;50.566;7.262;2024-03-02T05:21:45;5.45;;;3.88;;
84135;SDS011;74238;50.566;7.262;2024-03-02T05:24:10;5.00;;;3.53;;
84135;SDS011;74238;50.566;7.262;2024-03-02T05:26:36;5.70;;;3.60;;
84135;SDS011;74238;50.566;7.262;2024-03-02T05:29:01;5.72;;;3.55;;
84135;SDS011;74238;50.566;7.262;2024-03-02T05:31:27;4.90;;;3.25;;
84135;SDS011;74238;50.566;7.262;2024-03-02T05:33:53;4.78;;;3.08;;
84135;SDS011;74238;50.566;7.262;2024-03-02T05:36:18;4.23;;;3.03;;
84135;SDS011;74238;50.566;7.262;2024-03-02T05:38:43;4.78;;;3.50;;
84135;SDS011;74238;50.566;7.262;2024-03-02T05:41:08;5.20;;;3.63;;
84135;SDS011;74238;50.566;7.262;2024-03-02T05:43:34;5.00;;;3.23;;
84135;SDS011;74238;50.566;7.262;2024-03-02T05:45:59;6.23;;;3.57;;
84135;SDS011;74238;50.566;7.262;2024-03-02T05:48:24;5.38;;;3.65;;
84135;SDS011;74238;50.566;7.262;2024-03-02T05:50:49;6.78;;;3.88;;
84135;SDS011;74238;50.566;7.262;2024-03-02T05:53:15;5.13;;;2.90;;
84135;SDS011;74238;50.566;7.262;2024-03-02T05:55:40;5.07;;;3.60;;
84135;SDS011;74238;50.566;7.262;2024-03-02T05:58:05;5.38;;;3.00;;
84135;SDS011;74238;50.566;7.262;2024-03-02T06:00:31;4.73;;;3.43;;
84135;SDS011;74238;50.566;7.262;2024-03-02T06:02:56;5.20;;;3.25;;
84135;SDS011;74238;50.566;7.262;2024-03-02T06:05:21;3.97;;;3.42;;
84135;SDS011;74238;50.566;7.262;2024-03-02T06:07:47;5.25;;;3.35;;
84135;SDS011;74238;50.566;7.262;2024-03-02T06:10:12;6.93;;;3.05;;
84135;SDS011;74238;50.566;7.262;2024-03-02T06:12:38;5.35;;;3.40;;
84135;SDS011;74238;50.566;7.262;2024-03-02T06:15:03;5.72;;;4.28;;
84135;SDS011;74238;50.566;7.262;2024-03-02T06:17:29;6.20;;;3.95;;
84135;SDS011;74238;50.566;7.262;2024-03-02T06:19:54;8.60;;;4.03;;
84135;SDS011;74238;50.566;7.262;2024-03-02T06:22:19;8.63;;;4.97;;
84135;SDS011;74238;50.566;7.262;2024-03-02T06:24:46;6.78;;;4.30;;
84135;SDS011;74238;50.566;7.262;2024-03-02T06:27:11;6.20;;;3.10;;
84135;SDS011;74238;50.566;7.262;2024-03-02T06:29:36;7.07;;;4.13;;
84135;SDS011;74238;50.566;7.262;2024-03-02T06:32:02;6.88;;;3.35;;
84135;SDS011;74238;50.566;7.262;2024-03-02T06:34:27;6.70;;;3.42;;
84135;SDS011;74238;50.566;7.262;2024-03-02T06:36:53;5.43;;;3.60;;
84135;SDS011;74238;50.566;7.262;2024-03-02T06:39:18;7.47;;;4.57;;
84135;SDS011;74238;50.566;7.262;2024-03-02T06:41:43;9.40;;;4.30;;
84135;SDS011;74238;50.566;7.262;2024-03-02T06:44:08;6.40;;;3.43;;
84135;SDS011;74238;50.566;7.262;2024-03-02T06:46:34;4.23;;;2.80;;
84135;SDS011;74238;50.566;7.262;2024-03-02T06:48:59;4.43;;;3.65;;
84135;SDS011;74238;50.566;7.262;2024-03-02T06:51:24;5.55;;;3.30;;
84135;SDS011;74238;50.566;7.262;2024-03-02T06:53:49;4.67;;;3.40;;
84135;SDS011;74238;50.566;7.262;2024-03-02T06:56:15;6.85;;;3.53;;
84135;SDS011;74238;50.566;7.262;2024-03-02T06:58:40;4.20;;;3.03;;
84135;SDS011;74238;50.566;7.262;2024-03-02T07:01:05;7.25;;;3.75;;
84135;SDS011;74238;50.566;7.262;2024-03-02T07:03:30;7.27;;;3.80;;
84135;SDS011;74238;50.566;7.262;2024-03-02T07:05:57;9.57;;;4.63;;
84135;SDS011;74238;50.566;7.262;2024-03-02T07:08:23;6.75;;;4.28;;
84135;SDS011;74238;50.566;7.262;2024-03-02T07:10:48;7.07;;;4.65;;
84135;SDS011;74238;50.566;7.262;2024-03-02T07:13:14;8.40;;;3.97;;
84135;SDS011;74238;50.566;7.262;2024-03-02T07:15:39;6.00;;;3.88;;
84135;SDS011;74238;50.566;7.262;2024-03-02T07:20:50;6.47;;;3.43;;
84135;SDS011;74238;50.566;7.262;2024-03-02T07:23:15;7.03;;;3.87;;
84135;SDS011;74238;50.566;7.262;2024-03-02T07:25:40;6.60;;;3.47;;
84135;SDS011;74238;50.566;7.262;2024-03-02T07:28:06;6.33;;;4.23;;
84135;SDS011;74238;50.566;7.262;2024-03-02T07:30:32;6.13;;;4.20;;
84135;SDS011;74238;50.566;7.262;2024-03-02T07:32:58;8.43;;;5.10;;
84135;SDS011;74238;50.566;7.262;2024-03-02T07:35:24;8.32;;;5.85;;
84135;SDS011;74238;50.566;7.262;2024-03-02T07:37:52;8.88;;;5.07;;
84135;SDS011;74238;50.566;7.262;2024-03-02T07:40:18;7.78;;;4.90;;
84135;SDS011;74238;50.566;7.262;2024-03-02T07:42:44;7.50;;;5.13;;
84135;SDS011;74238;50.566;7.262;2024-03-02T07:45:10;8.05;;;5.35;;
84135;SDS011;74238;50.566;7.262;2024-03-02T07:47:35;6.47;;;4.68;;
84135;SDS011;74238;50.566;7.262;2024-03-02T07:50:01;7.65;;;5.22;;
84135;SDS011;74238;50.566;7.262;2024-03-02T07:52:26;11.25;;;5.35;;
84135;SDS011;74238;50.566;7.262;2024-03-02T07:54:51;7.40;;;5.30;;
84135;SDS011;74238;50.566;7.262;2024-03-02T07:57:16;9.20;;;4.40;;
84135;SDS011;74238;50.566;7.262;2024-03-02T07:59:42;6.53;;;4.43;;
84135;SDS011;74238;50.566;7.262;2024-03-02T08:02:08;6.95;;;4.53;;
84135;SDS011;74238;50.566;7.262;2024-03-02T08:04:33;7.15;;;4.10;;
84135;SDS011;74238;50.566;7.262;2024-03-02T08:06:58;7.03;;;4.22;;
84135;SDS011;74238;50.566;7.262;2024-03-02T08:09:24;6.20;;;4.00;;
84135;SDS011;74238;50.566;7.262;2024-03-02T08:11:49;9.03;;;4.57;;
84135;SDS011;74238;50.566;7.262;2024-03-02T08:14:14;7.65;;;3.97;;
84135;SDS011;74238;50.566;7.262;2024-03-02T08:16:40;4.70;;;3.38;;
84135;SDS011;74238;50.566;7.262;2024-03-02T08:19:06;4.32;;;3.17;;
84135;SDS011;74238;50.566;7.262;2024-03-02T08:24:01;6.07;;;3.83;;
84135;SDS011;74238;50.566;7.262;2024-03-02T08:26:27;4.65;;;3.38;;
84135;SDS011;74238;50.566;7.262;2024-03-02T08:28:54;10.45;;;3.97;;
84135;SDS011;74238;50.566;7.262;2024-03-02T08:31:20;5.82;;;3.60;;
84135;SDS011;74238;50.566;7.262;2024-03-02T08:33:45;3.90;;;2.65;;
84135;SDS011;74238;50.566;7.262;2024-03-02T08:36:10;5.70;;;2.63;;
84135;SDS011;74238;50.566;7.262;2024-03-02T08:38:36;6.20;;;2.90;;
84135;SDS011;74238;50.566;7.262;2024-03-02T08:41:02;5.00;;;2.60;;
84135;SDS011;74238;50.566;7.262;2024-03-02T08:43:28;4.88;;;2.40;;
84135;SDS011;74238;50.566;7.262;2024-03-02T08:45:53;4.63;;;3.03;;
84135;SDS011;74238;50.566;7.262;2024-03-02T08:48:19;4.60;;;2.88;;
84135;SDS011;74238;50.566;7.262;2024-03-02T08:53:11;5.77;;;3.03;;
84135;SDS011;74238;50.566;7.262;2024-03-02T08:55:36;5.53;;;2.58;;
84135;SDS011;74238;50.566;7.262;2024-03-02T08:58:01;4.20;;;2.57;;
84135;SDS011;74238;50.566;7.262;2024-03-02T09:00:27;4.18;;;2.42;;
84135;SDS011;74238;50.566;7.262;2024-03-02T09:02:52;4.82;;;2.35;;
84135;SDS011;74238;50.566;7.262;2024-03-02T09:05:17;4.88;;;2.47;;
84135;SDS011;74238;50.566;7.262;2024-03-02T09:07:43;4.05;;;2.40;;
84135;SDS011;74238;50.566;7.262;2024-03-02T09:10:08;3.97;;;2.30;;
84135;SDS011;74238;50.566;7.262;2024-03-02T09:12:34;4.75;;;2.22;;
84135;SDS011;74238;50.566;7.262;2024-03-02T09:15:00;4.78;;;2.17;;
84135;SDS011;74238;50.566;7.262;2024-03-02T09:17:26;3.67;;;2.38;;
84135;SDS011;74238;50.566;7.262;2024-03-02T09:19:52;3.83;;;2.53;;
84135;SDS011;74238;50.566;7.262;2024-03-02T09:22:18;3.80;;;2.35;;
84135;SDS011;74238;50.566;7.262;2024-03-02T09:24:43;4.72;;;3.33;;
84135;SDS011;74238;50.566;7.262;2024-03-02T09:27:08;4.20;;;2.50;;
84135;SDS011;74238;50.566;7.262;2024-03-02T09:29:34;5.45;;;2.60;;
84135;SDS011;74238;50.566;7.262;2024-03-02T09:31:59;4.95;;;2.33;;
84135;SDS011;74238;50.566;7.262;2024-03-02T09:34:24;5.40;;;2.37;;
84135;SDS011;74238;50.566;7.262;2024-03-02T09:36:50;3.03;;;2.38;;
84135;SDS011;74238;50.566;7.262;2024-03-02T09:39:16;3.78;;;2.70;;
84135;SDS011;74238;50.566;7.262;2024-03-02T09:41:42;4.07;;;2.15;;
84135;SDS011;74238;50.566;7.262;2024-03-02T09:44:08;4.47;;;2.67;;
84135;SDS011;74238;50.566;7.262;2024-03-02T09:46:34;5.22;;;2.88;;
84135;SDS011;74238;50.566;7.262;2024-03-02T09:49:01;4.57;;;2.47;;
84135;SDS011;74238;50.566;7.262;2024-03-02T09:51:27;5.45;;;3.17;;
84135;SDS011;74238;50.566;7.262;2024-03-02T09:53:53;5.95;;;2.60;;
84135;SDS011;74238;50.566;7.262;2024-03-02T09:56:20;4.00;;;2.95;;
84135;SDS011;74238;50.566;7.262;2024-03-02T10:01:11;5.43;;;2.70;;
84135;SDS011;74238;50.566;7.262;2024-03-02T10:03:36;3.60;;;2.15;;
84135;SDS011;74238;50.566;7.262;2024-03-02T10:08:46;5.80;;;3.17;;
84135;SDS011;74238;50.566;7.262;2024-03-02T10:11:25;4.25;;;2.70;;
84135;SDS011;74238;50.566;7.262;2024-03-02T10:14:09;4.50;;;3.03;;
84135;SDS011;74238;50.566;7.262;2024-03-02T10:16:36;5.05;;;2.75;;
84135;SDS011;74238;50.566;7.262;2024-03-02T10:19:22;3.35;;;2.50;;
84135;SDS011;74238;50.566;7.262;2024-03-02T10:21:53;4.05;;;2.28;;
84135;SDS011;74238;50.566;7.262;2024-03-02T10:24:20;3.05;;;2.35;;
84135;SDS011;74238;50.566;7.262;2024-03-02T10:26:46;5.40;;;2.80;;
84135;SDS011;74238;50.566;7.262;2024-03-02T10:29:12;4.85;;;2.60;;
84135;SDS011;74238;50.566;7.262;2024-03-02T10:31:38;4.32;;;2.75;;
84135;SDS011;74238;50.566;7.262;2024-03-02T10:34:08;6.03;;;2.78;;
84135;SDS011;74238;50.566;7.262;2024-03-02T10:36:34;3.33;;;2.00;;
84135;SDS011;74238;50.566;7.262;2024-03-02T10:39:04;5.55;;;2.30;;
84135;SDS011;74238;50.566;7.262;2024-03-02T10:41:33;2.88;;;2.05;;
84135;SDS011;74238;50.566;7.262;2024-03-02T10:44:03;2.92;;;1.52;;
84135;SDS011;74238;50.566;7.262;2024-03-02T10:46:34;3.42;;;2.38;;
84135;SDS011;74238;50.566;7.262;2024-03-02T10:49:01;4.97;;;2.08;;
84135;SDS011;74238;50.566;7.262;2024-03-02T10:51:29;3.28;;;1.70;;
84135;SDS011;74238;50.566;7.262;2024-03-02T10:54:01;2.47;;;1.88;;
84135;SDS011;74238;50.566;7.262;2024-03-02T10:56:31;4.32;;;1.60;;
84135;SDS011;74238;50.566;7.262;2024-03-02T11:01:47;2.78;;;1.45;;
84135;SDS011;74238;50.566;7.262;2024-03-02T11:04:15;5.55;;;1.83;;
84135;SDS011;74238;50.566;7.262;2024-03-02T11:06:44;3.53;;;1.33;;
84135;SDS011;74238;50.566;7.262;2024-03-02T11:09:14;2.42;;;1.50;;
84135;SDS011;74238;50.566;7.262;2024-03-02T11:11:42;5.80;;;1.30;;
84135;SDS011;74238;50.566;7.262;2024-03-02T11:14:10;1.77;;;1.15;;
84135;SDS011;74238;50.566;7.262;2024-03-02T11:16:39;2.60;;;1.45;;
84135;SDS011;74238;50.566;7.262;2024-03-02T11:19:06;2.75;;;1.48;;
84135;SDS011;74238;50.566;7.262;2024-03-02T11:21:37;2.55;;;2.00;;
84135;SDS011;74238;50.566;7.262;2024-03-02T11:24:49;2.80;;;1.92;;
84135;SDS011;74238;50.566;7.262;2024-03-02T11:26:49;2.80;;;1.83;;
84135;SDS011;74238;50.566;7.262;2024-03-02T11:32:02;4.80;;;1.83;;
84135;SDS011;74238;50.566;7.262;2024-03-02T11:34:35;2.40;;;1.33;;
84135;SDS011;74238;50.566;7.262;2024-03-02T11:37:02;2.92;;;1.65;;
84135;SDS011;74238;50.566;7.262;2024-03-02T11:39:29;4.38;;;1.60;;
84135;SDS011;74238;50.566;7.262;2024-03-02T11:41:55;3.08;;;2.08;;
84135;SDS011;74238;50.566;7.262;2024-03-02T11:44:25;2.65;;;1.42;;
84135;SDS011;74238;50.566;7.262;2024-03-02T11:46:52;2.22;;;1.55;;
84135;SDS011;74238;50.566;7.262;2024-03-02T11:49:31;2.38;;;1.70;;
84135;SDS011;74238;50.566;7.262;2024-03-02T11:52:02;3.53;;;2.00;;
84135;SDS011;74238;50.566;7.262;2024-03-02T11:54:30;2.10;;;1.38;;
84135;SDS011;74238;50.566;7.262;2024-03-02T11:56:59;3.80;;;1.33;;
84135;SDS011;74238;50.566;7.262;2024-03-02T11:59:27;2.25;;;1.60;;
84135;SDS011;74238;50.566;7.262;2024-03-02T12:01:54;6.32;;;1.52;;
84135;SDS011;74238;50.566;7.262;2024-03-02T12:04:19;2.10;;;1.20;;
84135;SDS011;74238;50.566;7.262;2024-03-02T12:06:44;3.13;;;1.70;;
84135;SDS011;74238;50.566;7.262;2024-03-02T12:09:11;2.22;;;1.42;;
84135;SDS011;74238;50.566;7.262;2024-03-02T12:11:39;2.75;;;1.75;;
84135;SDS011;74238;50.566;7.262;2024-03-02T12:14:05;3.92;;;1.27;;
84135;SDS011;74238;50.566;7.262;2024-03-02T12:19:04;3.35;;;1.45;;
84135;SDS011;74238;50.566;7.262;2024-03-02T12:21:30;2.28;;;1.40;;
84135;SDS011;74238;50.566;7.262;2024-03-02T12:23:55;2.95;;;1.98;;
84135;SDS011;74238;50.566;7.262;2024-03-02T12:26:20;4.07;;;2.03;;
84135;SDS011;74238;50.566;7.262;2024-03-02T12:28:47;4.60;;;1.85;;
84135;SDS011;74238;50.566;7.262;2024-03-02T12:31:13;2.47;;;1.73;;
84135;SDS011;74238;50.566;7.262;2024-03-02T12:33:38;2.83;;;1.67;;
84135;SDS011;74238;50.566;7.262;2024-03-02T12:36:09;3.88;;;1.70;;
84135;SDS011;74238;50.566;7.262;2024-03-02T12:38:34;2.70;;;1.65;;
84135;SDS011;74238;50.566;7.262;2024-03-02T12:40:59;3.60;;;1.60;;
84135;SDS011;74238;50.566;7.262;2024-03-02T12:43:29;9.73;;;5.10;;
84135;SDS011;74238;50.566;7.262;2024-03-02T12:45:55;3.60;;;2.08;;
84135;SDS011;74238;50.566;7.262;2024-03-02T12:48:21;5.55;;;2.13;;
84135;SDS011;74238;50.566;7.262;2024-03-02T12:50:46;7.00;;;3.30;;
84135;SDS011;74238;50.566;7.262;2024-03-02T12:53:15;3.78;;;1.90;;
84135;SDS011;74238;50.566;7.262;2024-03-02T12:55:41;2.28;;;1.40;;
84135;SDS011;74238;50.566;7.262;2024-03-02T12:58:07;3.22;;;1.40;;
84135;SDS011;74238;50.566;7.262;2024-03-02T13:00:32;5.27;;;2.17;;
84135;SDS011;74238;50.566;7.262;2024-03-02T13:03:00;5.70;;;2.22;;
84135;SDS011;74238;50.566;7.262;2024-03-02T13:05:31;4.38;;;2.53;;
84135;SDS011;74238;50.566;7.262;2024-03-02T13:07:57;4.13;;;2.30;;
84135;SDS011;74238;50.566;7.262;2024-03-02T13:10:24;4.68;;;2.50;;
84135;SDS011;74238;50.566;7.262;2024-03-02T13:12:50;2.88;;;1.42;;
84135;SDS011;74238;50.566;7.262;2024-03-02T13:15:15;2.30;;;1.40;;
84135;SDS011;74238;50.566;7.262;2024-03-02T13:17:40;3.13;;;1.60;;
84135;SDS011;74238;50.566;7.262;2024-03-02T13:20:06;2.10;;;1.30;;
84135;SDS011;74238;50.566;7.262;2024-03-02T13:22:35;3.53;;;1.90;;
84135;SDS011;74238;50.566;7.262;2024-03-02T13:25:01;3.85;;;1.83;;
84135;SDS011;74238;50.566;7.262;2024-03-02T13:27:29;2.88;;;1.60;;
84135;SDS011;74238;50.566;7.262;2024-03-02T13:29:55;3.22;;;1.60;;
84135;SDS011;74238;50.566;7.262;2024-03-02T13:32:20;5.35;;;1.70;;
84135;SDS011;74238;50.566;7.262;2024-03-02T13:34:49;3.80;;;1.50;;
84135;SDS011;74238;50.566;7.262;2024-03-02T13:37:14;3.05;;;1.35;;
84135;SDS011;74238;50.566;7.262;2024-03-02T13:39:40;2.05;;;1.25;;
84135;SDS011;74238;50.566;7.262;2024-03-02T13:42:09;2.25;;;1.50;;
84135;SDS011;74238;50.566;7.262;2024-03-02T13:44:35;3.00;;;1.58;;
84135;SDS011;74238;50.566;7.262;2024-03-02T13:47:02;2.55;;;1.35;;
84135;SDS011;74238;50.566;7.262;2024-03-02T13:49:28;3.58;;;1.50;;
84135;SDS011;74238;50.566;7.262;2024-03-02T13:52:01;1.90;;;1.33;;
84135;SDS011;74238;50.566;7.262;2024-03-02T13:54:36;2.80;;;1.58;;
84135;SDS011;74238;50.566;7.262;2024-03-02T13:57:02;3.75;;;1.30;;
84135;SDS011;74238;50.566;7.262;2024-03-02T13:59:27;3.38;;;1.33;;
84135;SDS011;74238;50.566;7.262;2024-03-02T14:01:52;2.70;;;1.63;;
84135;SDS011;74238;50.566;7.262;2024-03-02T14:04:18;3.47;;;1.85;;
84135;SDS011;74238;50.566;7.262;2024-03-02T14:06:43;2.22;;;1.35;;
84135;SDS011;74238;50.566;7.262;2024-03-02T14:09:09;2.53;;;1.40;;
84135;SDS011;74238;50.566;7.262;2024-03-02T14:11:34;5.97;;;1.67;;
84135;SDS011;74238;50.566;7.262;2024-03-02T14:16:27;1.88;;;1.20;;
84135;SDS011;74238;50.566;7.262;2024-03-02T14:18:52;2.55;;;1.55;;
84135;SDS011;74238;50.566;7.262;2024-03-02T14:21:18;2.60;;;1.53;;
84135;SDS011;74238;50.566;7.262;2024-03-02T14:23:43;2.92;;;1.58;;
84135;SDS011;74238;50.566;7.262;2024-03-02T14:26:08;2.20;;;1.50;;
84135;SDS011;74238;50.566;7.262;2024-03-02T14:28:33;2.35;;;1.50;;
84135;SDS011;74238;50.566;7.262;2024-03-02T14:30:59;3.28;;;1.50;;
84135;SDS011;74238;50.566;7.262;2024-03-02T14:33:25;3.55;;;1.60;;
84135;SDS011;74238;50.566;7.262;2024-03-02T14:35:51;1.75;;;1.45;;
84135;SDS011;74238;50.566;7.262;2024-03-02T14:38:16;2.53;;;1.70;;
84135;SDS011;74238;50.566;7.262;2024-03-02T14:40:42;3.53;;;1.77;;
84135;SDS011;74238;50.566;7.262;2024-03-02T14:43:08;3.55;;;2.38;;
84135;SDS011;74238;50.566;7.262;2024-03-02T14:45:33;3.30;;;2.40;;
84135;SDS011;74238;50.566;7.262;2024-03-02T14:47:58;3.67;;;1.75;;
84135;SDS011;74238;50.566;7.262;2024-03-02T14:50:25;2.15;;;1.48;;
84135;SDS011;74238;50.566;7.262;2024-03-02T14:52:53;3.10;;;1.42;;
84135;SDS011;74238;50.566;7.262;2024-03-02T14:55:19;2.33;;;1.60;;
84135;SDS011;74238;50.566;7.262;2024-03-02T14:57:44;3.35;;;1.50;;
84135;SDS011;74238;50.566;7.262;2024-03-02T15:00:10;2.03;;;1.60;;
84135;SDS011;74238;50.566;7.262;2024-03-02T15:02:36;2.65;;;1.45;;
84135;SDS011;74238;50.566;7.262;2024-03-02T15:05:02;1.58;;;1.20;;